sensor_id;sensor_type;location;lat;lon;timestamp;P1;durP1;ratioP1;P2;durP2;ratioP2
76290;SDS011;65100;46.884;17.410;2023-12-20T00:00:34;44.55;;;18.70;;
76290;SDS011;65100;46.884;17.410;2023-12-20T00:03:02;45.42;;;19.33;;
76290;SDS011;65100;46.884;17.410;2023-12-20T00:05:28;49.23;;;19.90;;
76290;SDS011;65100;46.884;17.410;2023-12-20T00:07:53;44.88;;;18.25;;
76290;SDS011;65100;46.884;17.410;2023-12-20T00:10:19;47.67;;;18.37;;
76290;SDS011;65100;46.884;17.410;2023-12-20T00:12:44;44.87;;;19.03;;
76290;SDS011;65100;46.884;17.410;2023-12-20T00:15:10;46.75;;;19.33;;
76290;SDS011;65100;46.884;17.410;2023-12-20T00:17:35;45.80;;;18.67;;
76290;SDS011;65100;46.884;17.410;2023-12-20T00:20:01;46.70;;;19.03;;
76290;SDS011;65100;46.884;17.410;2023-12-20T00:22:26;50.20;;;20.25;;
76290;SDS011;65100;46.884;17.410;2023-12-20T00:24:51;49.73;;;19.93;;
76290;SDS011;65100;46.884;17.410;2023-12-20T00:27:17;46.13;;;19.97;;
76290;SDS011;65100;46.884;17.410;2023-12-20T00:29:42;46.87;;;18.37;;
76290;SDS011;65100;46.884;17.410;2023-12-20T00:32:12;47.67;;;19.35;;
76290;SDS011;65100;46.884;17.410;2023-12-20T00:34:38;52.47;;;20.27;;
76290;SDS011;65100;46.884;17.410;2023-12-20T00:37:03;49.20;;;19.42;;
76290;SDS011;65100;46.884;17.410;2023-12-20T00:39:29;53.27;;;20.73;;
76290;SDS011;65100;46.884;17.410;2023-12-20T00:41:54;52.50;;;20.63;;
76290;SDS011;65100;46.884;17.410;2023-12-20T00:44:20;44.07;;;18.30;;
76290;SDS011;65100;46.884;17.410;2023-12-20T00:46:45;48.75;;;20.02;;
76290;SDS011;65100;46.884;17.410;2023-12-20T00:49:10;49.00;;;20.50;;
76290;SDS011;65100;46.884;17.410;2023-12-20T00:51:36;50.30;;;20.83;;
76290;SDS011;65100;46.884;17.410;2023-12-20T00:54:01;50.67;;;20.50;;
76290;SDS011;65100;46.884;17.410;2023-12-20T00:56:27;48.28;;;20.92;;
76290;SDS011;65100;46.884;17.410;2023-12-20T00:58:52;53.13;;;20.97;;
76290;SDS011;65100;46.884;17.410;2023-12-20T01:01:18;56.93;;;20.70;;
76290;SDS011;65100;46.884;17.410;2023-12-20T01:03:43;57.60;;;19.92;;
76290;SDS011;65100;46.884;17.410;2023-12-20T01:06:09;70.93;;;23.03;;
76290;SDS011;65100;46.884;17.410;2023-12-20T01:08:34;71.50;;;22.87;;
76290;SDS011;65100;46.884;17.410;2023-12-20T01:11:00;69.43;;;22.83;;
76290;SDS011;65100;46.884;17.410;2023-12-20T01:13:25;65.37;;;22.50;;
76290;SDS011;65100;46.884;17.410;2023-12-20T01:15:51;64.83;;;21.50;;
76290;SDS011;65100;46.884;17.410;2023-12-20T01:18:16;74.90;;;23.67;;
76290;SDS011;65100;46.884;17.410;2023-12-20T01:20:41;68.28;;;23.75;;
76290;SDS011;65100;46.884;17.410;2023-12-20T01:23:07;65.60;;;23.37;;
76290;SDS011;65100;46.884;17.410;2023-12-20T01:25:33;79.90;;;24.70;;
76290;SDS011;65100;46.884;17.410;2023-12-20T01:27:58;75.50;;;24.90;;
76290;SDS011;65100;46.884;17.410;2023-12-20T01:30:24;69.20;;;24.03;;
76290;SDS011;65100;46.884;17.410;2023-12-20T01:32:49;71.73;;;24.23;;
76290;SDS011;65100;46.884;17.410;2023-12-20T01:35:14;71.53;;;25.33;;
76290;SDS011;65100;46.884;17.410;2023-12-20T01:37:40;64.77;;;22.40;;
76290;SDS011;65100;46.884;17.410;2023-12-20T01:40:05;66.73;;;24.03;;
76290;SDS011;65100;46.884;17.410;2023-12-20T01:42:31;67.88;;;23.77;;
76290;SDS011;65100;46.884;17.410;2023-12-20T01:44:57;64.87;;;24.10;;
76290;SDS011;65100;46.884;17.410;2023-12-20T01:47:22;63.40;;;22.70;;
76290;SDS011;65100;46.884;17.410;2023-12-20T01:49:48;63.13;;;23.60;;
76290;SDS011;65100;46.884;17.410;2023-12-20T01:52:14;57.90;;;22.93;;
76290;SDS011;65100;46.884;17.410;2023-12-20T01:54:40;59.38;;;22.75;;
76290;SDS011;65100;46.884;17.410;2023-12-20T01:57:06;63.60;;;23.90;;
76290;SDS011;65100;46.884;17.410;2023-12-20T01:59:33;62.20;;;22.27;;
76290;SDS011;65100;46.884;17.410;2023-12-20T02:01:59;68.13;;;24.00;;
76290;SDS011;65100;46.884;17.410;2023-12-20T02:04:25;64.55;;;22.48;;
76290;SDS011;65100;46.884;17.410;2023-12-20T02:06:52;64.38;;;22.48;;
76290;SDS011;65100;46.884;17.410;2023-12-20T02:09:18;65.03;;;23.20;;
76290;SDS011;65100;46.884;17.410;2023-12-20T02:11:43;62.47;;;21.90;;
76290;SDS011;65100;46.884;17.410;2023-12-20T02:14:09;61.60;;;23.00;;
76290;SDS011;65100;46.884;17.410;2023-12-20T02:16:34;61.25;;;21.10;;
76290;SDS011;65100;46.884;17.410;2023-12-20T02:19:00;61.97;;;22.13;;
76290;SDS011;65100;46.884;17.410;2023-12-20T02:21:25;69.23;;;22.50;;
76290;SDS011;65100;46.884;17.410;2023-12-20T02:23:56;71.90;;;22.90;;
76290;SDS011;65100;46.884;17.410;2023-12-20T02:26:22;68.43;;;21.90;;
76290;SDS011;65100;46.884;17.410;2023-12-20T02:28:47;61.63;;;21.43;;
76290;SDS011;65100;46.884;17.410;2023-12-20T02:31:13;55.57;;;19.07;;
76290;SDS011;65100;46.884;17.410;2023-12-20T02:33:38;61.73;;;19.53;;
76290;SDS011;65100;46.884;17.410;2023-12-20T02:36:04;60.63;;;20.20;;
76290;SDS011;65100;46.884;17.410;2023-12-20T02:38:31;53.80;;;18.77;;
76290;SDS011;65100;46.884;17.410;2023-12-20T02:40:57;55.00;;;17.63;;
76290;SDS011;65100;46.884;17.410;2023-12-20T02:43:22;50.53;;;20.23;;
76290;SDS011;65100;46.884;17.410;2023-12-20T02:45:47;58.47;;;20.30;;
76290;SDS011;65100;46.884;17.410;2023-12-20T02:48:13;69.07;;;21.65;;
76290;SDS011;65100;46.884;17.410;2023-12-20T02:50:38;58.63;;;17.70;;
76290;SDS011;65100;46.884;17.410;2023-12-20T02:53:04;57.30;;;18.67;;
76290;SDS011;65100;46.884;17.410;2023-12-20T02:55:29;53.73;;;18.53;;
76290;SDS011;65100;46.884;17.410;2023-12-20T02:57:54;57.22;;;18.75;;
76290;SDS011;65100;46.884;17.410;2023-12-20T03:00:20;48.47;;;17.03;;
76290;SDS011;65100;46.884;17.410;2023-12-20T03:02:45;53.90;;;18.27;;
76290;SDS011;65100;46.884;17.410;2023-12-20T03:05:11;55.47;;;19.90;;
76290;SDS011;65100;46.884;17.410;2023-12-20T03:07:36;51.27;;;18.37;;
76290;SDS011;65100;46.884;17.410;2023-12-20T03:10:03;59.20;;;20.25;;
76290;SDS011;65100;46.884;17.410;2023-12-20T03:12:29;52.47;;;18.63;;
76290;SDS011;65100;46.884;17.410;2023-12-20T03:14:54;51.50;;;18.13;;
76290;SDS011;65100;46.884;17.410;2023-12-20T03:17:20;54.83;;;20.80;;
76290;SDS011;65100;46.884;17.410;2023-12-20T03:19:46;55.57;;;20.03;;
76290;SDS011;65100;46.884;17.410;2023-12-20T03:22:11;52.40;;;20.50;;
76290;SDS011;65100;46.884;17.410;2023-12-20T03:24:36;60.17;;;20.70;;
76290;SDS011;65100;46.884;17.410;2023-12-20T03:27:02;57.67;;;18.10;;
76290;SDS011;65100;46.884;17.410;2023-12-20T03:29:28;53.90;;;19.03;;
76290;SDS011;65100;46.884;17.410;2023-12-20T03:31:53;49.63;;;17.63;;
76290;SDS011;65100;46.884;17.410;2023-12-20T03:34:19;51.60;;;18.87;;
76290;SDS011;65100;46.884;17.410;2023-12-20T03:36:44;52.03;;;19.77;;
76290;SDS011;65100;46.884;17.410;2023-12-20T03:39:12;54.13;;;18.25;;
76290;SDS011;65100;46.884;17.410;2023-12-20T03:41:38;48.80;;;16.55;;
76290;SDS011;65100;46.884;17.410;2023-12-20T03:44:03;49.40;;;17.73;;
76290;SDS011;65100;46.884;17.410;2023-12-20T03:46:29;49.20;;;18.50;;
76290;SDS011;65100;46.884;17.410;2023-12-20T03:48:54;50.97;;;17.40;;
76290;SDS011;65100;46.884;17.410;2023-12-20T03:51:20;48.03;;;17.80;;
76290;SDS011;65100;46.884;17.410;2023-12-20T03:53:45;47.67;;;17.40;;
76290;SDS011;65100;46.884;17.410;2023-12-20T03:56:10;54.90;;;19.33;;
76290;SDS011;65100;46.884;17.410;2023-12-20T03:58:36;52.47;;;19.73;;
76290;SDS011;65100;46.884;17.410;2023-12-20T04:01:01;56.28;;;19.70;;
76290;SDS011;65100;46.884;17.410;2023-12-20T04:03:27;53.67;;;19.03;;
76290;SDS011;65100;46.884;17.410;2023-12-20T04:05:53;55.25;;;19.23;;
76290;SDS011;65100;46.884;17.410;2023-12-20T04:08:18;60.43;;;19.10;;
76290;SDS011;65100;46.884;17.410;2023-12-20T04:10:45;58.85;;;18.60;;
76290;SDS011;65100;46.884;17.410;2023-12-20T04:13:10;55.17;;;18.87;;
76290;SDS011;65100;46.884;17.410;2023-12-20T04:15:36;49.22;;;17.70;;
76290;SDS011;65100;46.884;17.410;2023-12-20T04:18:01;60.23;;;20.23;;
76290;SDS011;65100;46.884;17.410;2023-12-20T04:20:26;56.53;;;19.63;;
76290;SDS011;65100;46.884;17.410;2023-12-20T04:22:52;56.57;;;18.73;;
76290;SDS011;65100;46.884;17.410;2023-12-20T04:28:24;48.30;;;17.07;;
76290;SDS011;65100;46.884;17.410;2023-12-20T04:30:50;58.42;;;17.98;;
76290;SDS011;65100;46.884;17.410;2023-12-20T04:33:15;58.23;;;21.93;;
76290;SDS011;65100;46.884;17.410;2023-12-20T04:35:41;68.32;;;22.35;;
76290;SDS011;65100;46.884;17.410;2023-12-20T04:38:07;60.70;;;22.30;;
76290;SDS011;65100;46.884;17.410;2023-12-20T04:40:33;66.72;;;22.17;;
76290;SDS011;65100;46.884;17.410;2023-12-20T04:42:59;50.80;;;20.40;;
76290;SDS011;65100;46.884;17.410;2023-12-20T04:45:25;58.80;;;20.65;;
76290;SDS011;65100;46.884;17.410;2023-12-20T04:47:50;59.47;;;22.33;;
76290;SDS011;65100;46.884;17.410;2023-12-20T04:50:16;55.28;;;21.25;;
76290;SDS011;65100;46.884;17.410;2023-12-20T04:52:42;56.87;;;18.07;;
76290;SDS011;65100;46.884;17.410;2023-12-20T04:55:07;47.07;;;16.83;;
76290;SDS011;65100;46.884;17.410;2023-12-20T04:57:34;42.85;;;15.48;;
76290;SDS011;65100;46.884;17.410;2023-12-20T04:59:59;52.23;;;17.50;;
76290;SDS011;65100;46.884;17.410;2023-12-20T05:02:25;49.28;;;17.17;;
76290;SDS011;65100;46.884;17.410;2023-12-20T05:04:50;47.70;;;16.73;;
76290;SDS011;65100;46.884;17.410;2023-12-20T05:07:16;55.33;;;17.47;;
76290;SDS011;65100;46.884;17.410;2023-12-20T05:09:41;55.23;;;19.20;;
76290;SDS011;65100;46.884;17.410;2023-12-20T05:12:07;45.67;;;16.55;;
76290;SDS011;65100;46.884;17.410;2023-12-20T05:14:32;48.77;;;17.30;;
76290;SDS011;65100;46.884;17.410;2023-12-20T05:16:58;53.15;;;18.23;;
76290;SDS011;65100;46.884;17.410;2023-12-20T05:19:24;50.83;;;18.17;;
76290;SDS011;65100;46.884;17.410;2023-12-20T05:21:49;47.57;;;17.80;;
76290;SDS011;65100;46.884;17.410;2023-12-20T05:24:15;49.80;;;18.30;;
76290;SDS011;65100;46.884;17.410;2023-12-20T05:26:40;46.20;;;18.27;;
76290;SDS011;65100;46.884;17.410;2023-12-20T05:29:06;46.50;;;18.87;;
76290;SDS011;65100;46.884;17.410;2023-12-20T05:31:31;53.60;;;18.92;;
76290;SDS011;65100;46.884;17.410;2023-12-20T05:33:57;57.43;;;20.37;;
76290;SDS011;65100;46.884;17.410;2023-12-20T05:36:23;48.03;;;17.45;;
76290;SDS011;65100;46.884;17.410;2023-12-20T05:38:48;50.57;;;19.10;;
76290;SDS011;65100;46.884;17.410;2023-12-20T05:41:14;51.43;;;20.33;;
76290;SDS011;65100;46.884;17.410;2023-12-20T05:43:39;50.58;;;17.77;;
76290;SDS011;65100;46.884;17.410;2023-12-20T05:46:04;49.30;;;17.43;;
76290;SDS011;65100;46.884;17.410;2023-12-20T05:48:30;44.80;;;16.37;;
76290;SDS011;65100;46.884;17.410;2023-12-20T05:50:55;48.27;;;16.67;;
76290;SDS011;65100;46.884;17.410;2023-12-20T05:53:21;45.15;;;17.67;;
76290;SDS011;65100;46.884;17.410;2023-12-20T05:55:46;58.37;;;19.50;;
76290;SDS011;65100;46.884;17.410;2023-12-20T05:58:12;53.23;;;20.33;;
76290;SDS011;65100;46.884;17.410;2023-12-20T06:00:37;51.83;;;18.60;;
76290;SDS011;65100;46.884;17.410;2023-12-20T06:03:03;47.57;;;18.07;;
76290;SDS011;65100;46.884;17.410;2023-12-20T06:05:30;54.03;;;18.98;;
76290;SDS011;65100;46.884;17.410;2023-12-20T06:07:56;53.40;;;18.58;;
76290;SDS011;65100;46.884;17.410;2023-12-20T06:10:26;50.63;;;17.83;;
76290;SDS011;65100;46.884;17.410;2023-12-20T06:12:52;49.80;;;17.98;;
76290;SDS011;65100;46.884;17.410;2023-12-20T06:15:17;52.67;;;18.20;;
76290;SDS011;65100;46.884;17.410;2023-12-20T06:17:43;58.30;;;19.80;;
76290;SDS011;65100;46.884;17.410;2023-12-20T06:20:09;54.97;;;20.33;;
76290;SDS011;65100;46.884;17.410;2023-12-20T06:22:35;56.75;;;19.48;;
76290;SDS011;65100;46.884;17.410;2023-12-20T06:25:01;49.08;;;19.42;;
76290;SDS011;65100;46.884;17.410;2023-12-20T06:27:27;50.88;;;18.70;;
76290;SDS011;65100;46.884;17.410;2023-12-20T06:29:53;54.28;;;18.40;;
76290;SDS011;65100;46.884;17.410;2023-12-20T06:32:19;80.63;;;27.30;;
76290;SDS011;65100;46.884;17.410;2023-12-20T06:34:44;60.83;;;21.47;;
76290;SDS011;65100;46.884;17.410;2023-12-20T06:37:10;48.63;;;18.92;;
76290;SDS011;65100;46.884;17.410;2023-12-20T06:39:35;53.87;;;19.40;;
76290;SDS011;65100;46.884;17.410;2023-12-20T06:42:01;49.90;;;18.63;;
76290;SDS011;65100;46.884;17.410;2023-12-20T06:44:26;39.00;;;15.50;;
76290;SDS011;65100;46.884;17.410;2023-12-20T06:46:52;49.70;;;17.67;;
76290;SDS011;65100;46.884;17.410;2023-12-20T06:49:18;41.97;;;16.42;;
76290;SDS011;65100;46.884;17.410;2023-12-20T06:51:43;42.47;;;15.80;;
76290;SDS011;65100;46.884;17.410;2023-12-20T06:54:09;43.33;;;14.40;;
76290;SDS011;65100;46.884;17.410;2023-12-20T06:56:34;41.07;;;15.83;;
76290;SDS011;65100;46.884;17.410;2023-12-20T06:59:00;42.03;;;15.43;;
76290;SDS011;65100;46.884;17.410;2023-12-20T07:01:25;40.20;;;16.00;;
76290;SDS011;65100;46.884;17.410;2023-12-20T07:03:52;43.92;;;15.77;;
76290;SDS011;65100;46.884;17.410;2023-12-20T07:06:22;44.88;;;16.50;;
76290;SDS011;65100;46.884;17.410;2023-12-20T07:08:47;48.77;;;17.50;;
76290;SDS011;65100;46.884;17.410;2023-12-20T07:11:13;49.50;;;17.97;;
76290;SDS011;65100;46.884;17.410;2023-12-20T07:13:40;40.78;;;15.70;;
76290;SDS011;65100;46.884;17.410;2023-12-20T07:16:06;46.60;;;18.50;;
76290;SDS011;65100;46.884;17.410;2023-12-20T07:18:32;50.27;;;17.47;;
76290;SDS011;65100;46.884;17.410;2023-12-20T07:20:58;54.70;;;17.17;;
76290;SDS011;65100;46.884;17.410;2023-12-20T07:23:23;51.57;;;18.00;;
76290;SDS011;65100;46.884;17.410;2023-12-20T07:25:50;47.72;;;17.23;;
76290;SDS011;65100;46.884;17.410;2023-12-20T07:28:16;60.60;;;22.93;;
76290;SDS011;65100;46.884;17.410;2023-12-20T07:30:41;54.87;;;19.73;;
76290;SDS011;65100;46.884;17.410;2023-12-20T07:33:07;58.97;;;22.42;;
76290;SDS011;65100;46.884;17.410;2023-12-20T07:35:34;65.30;;;23.37;;
76290;SDS011;65100;46.884;17.410;2023-12-20T07:38:01;65.38;;;23.30;;
76290;SDS011;65100;46.884;17.410;2023-12-20T07:40:30;59.03;;;20.77;;
76290;SDS011;65100;46.884;17.410;2023-12-20T07:42:56;52.00;;;19.02;;
76290;SDS011;65100;46.884;17.410;2023-12-20T07:45:23;60.60;;;20.85;;
76290;SDS011;65100;46.884;17.410;2023-12-20T07:47:52;55.10;;;19.63;;
76290;SDS011;65100;46.884;17.410;2023-12-20T07:50:18;60.83;;;20.10;;
76290;SDS011;65100;46.884;17.410;2023-12-20T07:52:53;54.97;;;19.10;;
76290;SDS011;65100;46.884;17.410;2023-12-20T07:55:21;49.92;;;19.33;;
76290;SDS011;65100;46.884;17.410;2023-12-20T07:57:47;61.63;;;22.05;;
76290;SDS011;65100;46.884;17.410;2023-12-20T08:00:13;57.70;;;20.70;;
76290;SDS011;65100;46.884;17.410;2023-12-20T08:02:43;52.88;;;20.58;;
76290;SDS011;65100;46.884;17.410;2023-12-20T08:05:09;46.47;;;16.33;;
76290;SDS011;65100;46.884;17.410;2023-12-20T08:07:35;47.00;;;16.70;;
76290;SDS011;65100;46.884;17.410;2023-12-20T08:10:01;55.05;;;18.33;;
76290;SDS011;65100;46.884;17.410;2023-12-20T08:12:26;46.13;;;17.47;;
76290;SDS011;65100;46.884;17.410;2023-12-20T08:14:54;48.20;;;17.00;;
76290;SDS011;65100;46.884;17.410;2023-12-20T08:17:22;41.80;;;16.48;;
76290;SDS011;65100;46.884;17.410;2023-12-20T08:19:56;41.30;;;15.10;;
76290;SDS011;65100;46.884;17.410;2023-12-20T08:22:25;44.90;;;16.60;;
76290;SDS011;65100;46.884;17.410;2023-12-20T08:24:52;45.30;;;16.90;;
76290;SDS011;65100;46.884;17.410;2023-12-20T08:27:18;45.90;;;15.75;;
76290;SDS011;65100;46.884;17.410;2023-12-20T08:29:44;49.20;;;19.00;;
76290;SDS011;65100;46.884;17.410;2023-12-20T08:32:10;56.30;;;18.65;;
76290;SDS011;65100;46.884;17.410;2023-12-20T08:34:36;57.90;;;19.83;;
76290;SDS011;65100;46.884;17.410;2023-12-20T08:37:02;54.13;;;19.05;;
76290;SDS011;65100;46.884;17.410;2023-12-20T08:39:27;48.37;;;18.47;;
76290;SDS011;65100;46.884;17.410;2023-12-20T08:41:55;52.28;;;19.25;;
76290;SDS011;65100;46.884;17.410;2023-12-20T08:44:20;51.57;;;19.30;;
76290;SDS011;65100;46.884;17.410;2023-12-20T08:46:47;52.78;;;19.45;;
76290;SDS011;65100;46.884;17.410;2023-12-20T08:49:13;46.88;;;18.33;;
76290;SDS011;65100;46.884;17.410;2023-12-20T08:51:39;48.00;;;18.58;;
76290;SDS011;65100;46.884;17.410;2023-12-20T08:54:06;51.55;;;18.75;;
76290;SDS011;65100;46.884;17.410;2023-12-20T08:56:33;48.47;;;17.93;;
76290;SDS011;65100;46.884;17.410;2023-12-20T08:58:59;53.47;;;21.58;;
76290;SDS011;65100;46.884;17.410;2023-12-20T09:01:24;48.73;;;19.43;;
76290;SDS011;65100;46.884;17.410;2023-12-20T09:03:53;49.70;;;20.60;;
76290;SDS011;65100;46.884;17.410;2023-12-20T09:06:19;53.63;;;19.67;;
76290;SDS011;65100;46.884;17.410;2023-12-20T09:08:45;49.65;;;20.60;;
76290;SDS011;65100;46.884;17.410;2023-12-20T09:11:11;47.60;;;19.67;;
76290;SDS011;65100;46.884;17.410;2023-12-20T09:13:39;52.60;;;19.38;;
76290;SDS011;65100;46.884;17.410;2023-12-20T09:16:05;47.15;;;19.63;;
76290;SDS011;65100;46.884;17.410;2023-12-20T09:18:31;54.50;;;20.60;;
76290;SDS011;65100;46.884;17.410;2023-12-20T09:20:57;51.85;;;19.63;;
76290;SDS011;65100;46.884;17.410;2023-12-20T09:23:23;55.70;;;20.00;;
76290;SDS011;65100;46.884;17.410;2023-12-20T09:25:49;60.93;;;20.33;;
76290;SDS011;65100;46.884;17.410;2023-12-20T09:28:15;60.70;;;21.98;;
76290;SDS011;65100;46.884;17.410;2023-12-20T09:30:40;58.27;;;19.73;;
76290;SDS011;65100;46.884;17.410;2023-12-20T09:33:06;52.53;;;20.13;;
76290;SDS011;65100;46.884;17.410;2023-12-20T09:35:32;50.38;;;19.88;;
76290;SDS011;65100;46.884;17.410;2023-12-20T09:37:57;57.43;;;22.77;;
76290;SDS011;65100;46.884;17.410;2023-12-20T09:40:23;48.30;;;20.00;;
76290;SDS011;65100;46.884;17.410;2023-12-20T09:42:58;55.03;;;21.48;;
76290;SDS011;65100;46.884;17.410;2023-12-20T09:45:29;56.47;;;20.47;;
76290;SDS011;65100;46.884;17.410;2023-12-20T09:47:56;66.28;;;23.08;;
76290;SDS011;65100;46.884;17.410;2023-12-20T09:50:23;50.15;;;18.08;;
76290;SDS011;65100;46.884;17.410;2023-12-20T09:52:52;55.40;;;19.40;;
76290;SDS011;65100;46.884;17.410;2023-12-20T09:55:18;57.63;;;19.90;;
76290;SDS011;65100;46.884;17.410;2023-12-20T09:57:45;50.37;;;20.00;;
76290;SDS011;65100;46.884;17.410;2023-12-20T10:00:11;54.08;;;20.77;;
76290;SDS011;65100;46.884;17.410;2023-12-20T10:02:38;53.75;;;20.80;;
76290;SDS011;65100;46.884;17.410;2023-12-20T10:05:11;50.42;;;19.50;;
76290;SDS011;65100;46.884;17.410;2023-12-20T10:07:44;54.28;;;21.60;;
76290;SDS011;65100;46.884;17.410;2023-12-20T10:10:10;50.03;;;21.30;;
76290;SDS011;65100;46.884;17.410;2023-12-20T10:12:37;58.75;;;22.58;;
76290;SDS011;65100;46.884;17.410;2023-12-20T10:15:03;51.97;;;21.50;;
76290;SDS011;65100;46.884;17.410;2023-12-20T10:17:29;49.63;;;20.58;;
76290;SDS011;65100;46.884;17.410;2023-12-20T10:19:55;47.50;;;20.27;;
76290;SDS011;65100;46.884;17.410;2023-12-20T10:22:21;46.27;;;19.43;;
76290;SDS011;65100;46.884;17.410;2023-12-20T10:24:46;54.28;;;21.60;;
76290;SDS011;65100;46.884;17.410;2023-12-20T10:27:12;46.53;;;20.43;;
76290;SDS011;65100;46.884;17.410;2023-12-20T10:29:38;48.33;;;19.63;;
76290;SDS011;65100;46.884;17.410;2023-12-20T10:35:05;52.57;;;20.07;;
76290;SDS011;65100;46.884;17.410;2023-12-20T10:37:30;54.25;;;20.02;;
76290;SDS011;65100;46.884;17.410;2023-12-20T10:39:59;48.00;;;19.55;;
76290;SDS011;65100;46.884;17.410;2023-12-20T10:42:31;50.70;;;19.90;;
76290;SDS011;65100;46.884;17.410;2023-12-20T10:44:59;51.50;;;20.02;;
76290;SDS011;65100;46.884;17.410;2023-12-20T10:47:25;52.30;;;20.80;;
76290;SDS011;65100;46.884;17.410;2023-12-20T10:49:54;57.05;;;23.08;;
76290;SDS011;65100;46.884;17.410;2023-12-20T10:52:20;54.33;;;22.37;;
76290;SDS011;65100;46.884;17.410;2023-12-20T10:54:49;55.92;;;22.50;;
76290;SDS011;65100;46.884;17.410;2023-12-20T10:57:15;56.80;;;23.53;;
76290;SDS011;65100;46.884;17.410;2023-12-20T10:59:43;56.45;;;24.40;;
76290;SDS011;65100;46.884;17.410;2023-12-20T11:02:14;55.13;;;22.67;;
76290;SDS011;65100;46.884;17.410;2023-12-20T11:07:33;55.78;;;23.77;;
76290;SDS011;65100;46.884;17.410;2023-12-20T11:10:13;60.05;;;24.65;;
76290;SDS011;65100;46.884;17.410;2023-12-20T11:12:58;54.88;;;22.58;;
76290;SDS011;65100;46.884;17.410;2023-12-20T11:15:41;58.42;;;24.35;;
76290;SDS011;65100;46.884;17.410;2023-12-20T11:18:08;52.63;;;22.57;;
76290;SDS011;65100;46.884;17.410;2023-12-20T11:20:40;48.75;;;22.05;;
76290;SDS011;65100;46.884;17.410;2023-12-20T11:23:10;56.17;;;23.95;;
76290;SDS011;65100;46.884;17.410;2023-12-20T11:25:54;51.08;;;22.00;;
76290;SDS011;65100;46.884;17.410;2023-12-20T11:28:24;50.28;;;21.38;;
76290;SDS011;65100;46.884;17.410;2023-12-20T11:30:51;52.23;;;23.00;;
76290;SDS011;65100;46.884;17.410;2023-12-20T11:33:21;53.03;;;22.65;;
76290;SDS011;65100;46.884;17.410;2023-12-20T11:35:50;52.92;;;22.98;;
76290;SDS011;65100;46.884;17.410;2023-12-20T11:38:16;51.47;;;21.95;;
76290;SDS011;65100;46.884;17.410;2023-12-20T11:40:47;51.90;;;23.37;;
76290;SDS011;65100;46.884;17.410;2023-12-20T11:43:36;53.85;;;23.75;;
76290;SDS011;65100;46.884;17.410;2023-12-20T11:46:06;57.95;;;24.77;;
76290;SDS011;65100;46.884;17.410;2023-12-20T11:48:37;58.28;;;25.65;;
76290;SDS011;65100;46.884;17.410;2023-12-20T11:51:11;57.22;;;25.27;;
76290;SDS011;65100;46.884;17.410;2023-12-20T11:53:37;60.37;;;27.23;;
76290;SDS011;65100;46.884;17.410;2023-12-20T11:56:04;63.05;;;26.42;;
76290;SDS011;65100;46.884;17.410;2023-12-20T11:58:31;64.20;;;26.38;;
76290;SDS011;65100;46.884;17.410;2023-12-20T12:00:57;64.00;;;26.30;;
76290;SDS011;65100;46.884;17.410;2023-12-20T12:03:23;64.87;;;27.63;;
76290;SDS011;65100;46.884;17.410;2023-12-20T12:05:49;62.97;;;27.58;;
76290;SDS011;65100;46.884;17.410;2023-12-20T12:08:15;81.45;;;36.17;;
76290;SDS011;65100;46.884;17.410;2023-12-20T12:10:40;72.53;;;31.50;;
76290;SDS011;65100;46.884;17.410;2023-12-20T12:13:06;66.05;;;27.95;;
76290;SDS011;65100;46.884;17.410;2023-12-20T12:15:32;61.97;;;29.10;;
76290;SDS011;65100;46.884;17.410;2023-12-20T12:17:57;66.07;;;29.55;;
76290;SDS011;65100;46.884;17.410;2023-12-20T12:20:24;66.35;;;29.42;;
76290;SDS011;65100;46.884;17.410;2023-12-20T12:25:29;59.80;;;28.08;;
76290;SDS011;65100;46.884;17.410;2023-12-20T12:27:56;61.70;;;28.73;;
76290;SDS011;65100;46.884;17.410;2023-12-20T12:30:22;61.15;;;27.88;;
76290;SDS011;65100;46.884;17.410;2023-12-20T12:32:50;56.10;;;26.95;;
76290;SDS011;65100;46.884;17.410;2023-12-20T12:35:16;59.70;;;27.37;;
76290;SDS011;65100;46.884;17.410;2023-12-20T12:37:41;34.47;;;16.77;;
76290;SDS011;65100;46.884;17.410;2023-12-20T12:40:10;32.53;;;14.97;;
76290;SDS011;65100;46.884;17.410;2023-12-20T12:42:38;31.23;;;13.43;;
76290;SDS011;65100;46.884;17.410;2023-12-20T12:45:03;35.57;;;16.40;;
76290;SDS011;65100;46.884;17.410;2023-12-20T12:47:30;33.47;;;16.40;;
76290;SDS011;65100;46.884;17.410;2023-12-20T12:49:55;32.15;;;15.88;;
76290;SDS011;65100;46.884;17.410;2023-12-20T12:52:21;33.27;;;16.67;;
76290;SDS011;65100;46.884;17.410;2023-12-20T12:54:47;32.15;;;15.45;;
76290;SDS011;65100;46.884;17.410;2023-12-20T12:57:13;34.35;;;17.23;;
76290;SDS011;65100;46.884;17.410;2023-12-20T12:59:40;29.73;;;15.18;;
76290;SDS011;65100;46.884;17.410;2023-12-20T13:02:06;32.33;;;15.40;;
76290;SDS011;65100;46.884;17.410;2023-12-20T13:04:31;36.03;;;15.60;;
76290;SDS011;65100;46.884;17.410;2023-12-20T13:06:57;31.47;;;15.13;;
76290;SDS011;65100;46.884;17.410;2023-12-20T13:09:22;34.70;;;17.27;;
76290;SDS011;65100;46.884;17.410;2023-12-20T13:11:48;38.55;;;17.98;;
76290;SDS011;65100;46.884;17.410;2023-12-20T13:14:14;32.23;;;16.87;;
76290;SDS011;65100;46.884;17.410;2023-12-20T13:16:41;31.85;;;16.40;;
76290;SDS011;65100;46.884;17.410;2023-12-20T13:19:07;34.55;;;16.08;;
76290;SDS011;65100;46.884;17.410;2023-12-20T13:21:35;32.75;;;16.27;;
76290;SDS011;65100;46.884;17.410;2023-12-20T13:24:00;31.47;;;14.73;;
76290;SDS011;65100;46.884;17.410;2023-12-20T13:26:26;33.10;;;15.83;;
76290;SDS011;65100;46.884;17.410;2023-12-20T13:28:51;33.65;;;15.70;;
76290;SDS011;65100;46.884;17.410;2023-12-20T13:31:17;32.87;;;16.93;;
76290;SDS011;65100;46.884;17.410;2023-12-20T13:33:42;35.92;;;17.40;;
76290;SDS011;65100;46.884;17.410;2023-12-20T13:36:08;32.97;;;16.53;;
76290;SDS011;65100;46.884;17.410;2023-12-20T13:38:33;30.30;;;15.87;;
76290;SDS011;65100;46.884;17.410;2023-12-20T13:40:59;32.95;;;16.25;;
76290;SDS011;65100;46.884;17.410;2023-12-20T13:43:24;36.33;;;16.03;;
76290;SDS011;65100;46.884;17.410;2023-12-20T13:45:50;38.17;;;19.07;;
76290;SDS011;65100;46.884;17.410;2023-12-20T13:48:16;44.50;;;21.42;;
76290;SDS011;65100;46.884;17.410;2023-12-20T13:50:41;45.53;;;20.80;;
76290;SDS011;65100;46.884;17.410;2023-12-20T13:53:07;47.53;;;21.60;;
76290;SDS011;65100;46.884;17.410;2023-12-20T13:55:32;53.10;;;23.10;;
76290;SDS011;65100;46.884;17.410;2023-12-20T13:57:58;48.37;;;22.43;;
76290;SDS011;65100;46.884;17.410;2023-12-20T14:00:23;49.42;;;21.20;;
76290;SDS011;65100;46.884;17.410;2023-12-20T14:02:49;52.47;;;21.53;;
76290;SDS011;65100;46.884;17.410;2023-12-20T14:05:15;51.28;;;21.27;;
76290;SDS011;65100;46.884;17.410;2023-12-20T14:07:43;49.57;;;22.77;;
76290;SDS011;65100;46.884;17.410;2023-12-20T14:10:10;49.67;;;21.10;;
76290;SDS011;65100;46.884;17.410;2023-12-20T14:12:37;50.30;;;22.05;;
76290;SDS011;65100;46.884;17.410;2023-12-20T14:15:03;48.65;;;22.38;;